createdAt,value
2023-02-01T00:01:57.741Z,5.60
2023-02-01T00:04:25.553Z,5.50
2023-02-01T00:06:54.876Z,5.50
2023-02-01T00:09:22.781Z,5.60
2023-02-01T00:11:50.590Z,5.50
2023-02-01T00:14:18.480Z,5.60
2023-02-01T00:16:46.347Z,5.50
2023-02-01T00:19:15.848Z,5.40
2023-02-01T00:21:44.863Z,5.50
2023-02-01T00:24:14.856Z,5.40
2023-02-01T00:26:45.045Z,5.40
2023-02-01T00:29:14.500Z,5.40
2023-02-01T00:31:42.375Z,5.50
2023-02-01T00:34:13.590Z,5.50
2023-02-01T00:36:41.949Z,5.50
2023-02-01T00:39:09.965Z,5.40
2023-02-01T00:41:39.534Z,5.40
2023-02-01T00:44:07.358Z,5.50
2023-02-01T00:46:35.188Z,5.50
2023-02-01T00:49:03.173Z,5.40
2023-02-01T00:51:31.686Z,5.40
2023-02-01T00:53:59.620Z,5.40
2023-02-01T00:56:29.133Z,5.50
2023-02-01T00:58:58.580Z,5.50
2023-02-01T01:01:27.950Z,5.30
2023-02-01T01:03:57.838Z,5.30
2023-02-01T01:06:27.388Z,5.30
2023-02-01T01:08:56.223Z,5.40
2023-02-01T01:11:27.282Z,5.40
2023-02-01T01:13:56.524Z,5.40
2023-02-01T01:16:27.995Z,5.40
2023-02-01T01:18:57.367Z,5.40
2023-02-01T01:21:25.579Z,5.30
2023-02-01T01:23:53.509Z,5.20
2023-02-01T01:26:23.464Z,5.30
2023-02-01T01:28:51.506Z,5.20
2023-02-01T01:31:22.877Z,5.20
2023-02-01T01:33:54.406Z,5.20
2023-02-01T01:36:23.164Z,5.20
2023-02-01T01:38:51.266Z,5.30
2023-02-01T01:41:22.404Z,5.20
2023-02-01T01:43:56.112Z,5.20
2023-02-01T01:46:26.478Z,5.20
2023-02-01T01:49:03.829Z,5.20
2023-02-01T01:51:33.412Z,5.20
2023-02-01T01:54:06.093Z,5.20
2023-02-01T01:56:35.827Z,5.10
2023-02-01T01:59:04.490Z,5.10
2023-02-01T02:01:32.373Z,5.20
2023-02-01T02:04:02.406Z,5.10
2023-02-01T02:06:40.845Z,5.20
2023-02-01T02:09:08.870Z,5.20
2023-02-01T02:11:36.761Z,5.10
2023-02-01T02:14:07.454Z,5.20
2023-02-01T02:16:49.614Z,5.30
2023-02-01T02:19:50.350Z,5.30
2023-02-01T02:22:48.244Z,5.30
2023-02-01T02:25:46.895Z,5.30
2023-02-01T02:28:32.136Z,5.20
2023-02-01T02:31:24.446Z,5.30
2023-02-01T02:34:03.473Z,5.20
2023-02-01T02:36:44.603Z,5.20
2023-02-01T02:39:23.198Z,5.00
2023-02-01T02:42:21.003Z,5.10
2023-02-01T02:45:10.057Z,5.10
2023-02-01T02:47:46.175Z,5.10
2023-02-01T02:50:40.577Z,5.10
2023-02-01T02:53:32.634Z,5.20
2023-02-01T02:56:19.143Z,5.20
2023-02-01T02:59:06.209Z,5.20
2023-02-01T03:01:52.709Z,5.10
2023-02-01T03:04:21.010Z,5.20
2023-02-01T03:06:50.173Z,5.20
2023-02-01T03:09:23.215Z,5.10
2023-02-01T03:12:11.731Z,5.10
2023-02-01T03:14:41.705Z,5.20
2023-02-01T03:17:14.056Z,5.20
2023-02-01T03:19:49.377Z,5.20
2023-02-01T03:22:22.071Z,5.20
2023-02-01T03:24:53.510Z,5.20
2023-02-01T03:27:25.700Z,5.20
2023-02-01T03:30:00.737Z,5.20
2023-02-01T03:32:28.601Z,5.10
2023-02-01T03:34:57.400Z,5.10
2023-02-01T03:37:29.655Z,5.10
2023-02-01T03:40:02.853Z,5.10
2023-02-01T03:42:36.675Z,5.00
2023-02-01T03:45:11.763Z,5.00
2023-02-01T03:47:43.930Z,5.00
2023-02-01T03:50:14.741Z,5.00
2023-02-01T03:52:46.340Z,5.00
2023-02-01T03:55:17.381Z,5.00
2023-02-01T03:57:50.452Z,4.90
2023-02-01T04:00:22.973Z,4.90
2023-02-01T04:02:51.168Z,4.90
2023-02-01T04:05:19.154Z,4.90
2023-02-01T04:07:48.314Z,4.80
2023-02-01T04:10:19.308Z,4.80
2023-02-01T04:12:47.578Z,4.70
2023-02-01T04:15:15.389Z,4.80
2023-02-01T04:17:43.162Z,4.70
2023-02-01T04:20:12.266Z,4.80
2023-02-01T04:22:40.101Z,4.80
2023-02-01T04:25:10.193Z,4.70
2023-02-01T04:27:38.062Z,4.70
2023-02-01T04:30:10.556Z,4.70
2023-02-01T04:32:38.518Z,4.70
2023-02-01T04:35:07.030Z,4.60
2023-02-01T04:37:35.104Z,4.60
2023-02-01T04:40:04.618Z,4.60
2023-02-01T04:42:33.792Z,4.60
2023-02-01T04:45:01.619Z,4.50
2023-02-01T04:47:29.479Z,4.60
2023-02-01T04:49:57.227Z,4.50
2023-02-01T04:52:25.056Z,4.40
2023-02-01T04:54:55.175Z,4.40
2023-02-01T04:57:22.988Z,4.30
2023-02-01T04:59:52.153Z,4.40
2023-02-01T05:02:20.001Z,4.40
2023-02-01T05:04:47.829Z,4.30
2023-02-01T05:07:15.685Z,4.40
2023-02-01T05:09:43.430Z,4.40
2023-02-01T05:12:29.709Z,4.40
2023-02-01T05:14:58.824Z,4.40
2023-02-01T05:17:26.615Z,4.50
2023-02-01T05:19:54.560Z,4.50
2023-02-01T05:22:22.354Z,4.50
2023-02-01T05:24:50.226Z,4.50
2023-02-01T05:27:18.030Z,4.50
2023-02-01T05:29:45.815Z,4.40
2023-02-01T05:32:22.230Z,4.40
2023-02-01T05:34:50.817Z,4.40
2023-02-01T05:37:18.691Z,4.40
2023-02-01T05:39:46.459Z,4.50
2023-02-01T05:42:14.254Z,4.40
2023-02-01T05:44:42.080Z,4.40
2023-02-01T05:47:10.113Z,4.40
2023-02-01T05:49:39.257Z,4.40
2023-02-01T05:52:07.066Z,4.40
2023-02-01T05:54:34.964Z,4.40
2023-02-01T05:57:02.806Z,4.40
2023-02-01T05:59:30.681Z,4.40
2023-02-01T06:01:58.486Z,4.40
2023-02-01T06:04:26.632Z,4.40
2023-02-01T06:06:55.753Z,4.50
2023-02-01T06:09:23.561Z,4.40
2023-02-01T06:11:51.328Z,4.40
2023-02-01T06:14:19.298Z,4.50
2023-02-01T06:16:47.566Z,4.50
2023-02-01T06:19:15.571Z,4.50
2023-02-01T06:21:43.330Z,4.50
2023-02-01T06:24:12.462Z,4.50
2023-02-01T06:26:40.935Z,4.50
2023-02-01T06:29:08.841Z,4.50
2023-02-01T06:31:36.626Z,4.50
2023-02-01T06:34:04.901Z,4.50
2023-02-01T06:36:32.667Z,4.50
2023-02-01T06:39:01.167Z,4.40
2023-02-01T06:41:30.273Z,4.50
2023-02-01T06:43:58.136Z,4.50
2023-02-01T06:46:25.977Z,4.40
2023-02-01T06:48:53.875Z,4.40
2023-02-01T06:51:23.830Z,4.50
2023-02-01T06:53:51.973Z,4.50
2023-02-01T06:56:20.716Z,4.50
2023-02-01T06:58:50.175Z,4.50
2023-02-01T07:01:18.364Z,4.50
2023-02-01T07:03:50.131Z,4.50
2023-02-01T07:06:17.890Z,4.50
2023-02-01T07:08:46.307Z,4.50
2023-02-01T07:11:16.352Z,4.60
2023-02-01T07:13:44.355Z,4.50
2023-02-01T07:16:15.948Z,4.60
2023-02-01T07:18:43.856Z,4.60
2023-02-01T07:21:11.871Z,4.70
2023-02-01T07:23:40.200Z,4.70
2023-02-01T07:26:09.777Z,4.70
2023-02-01T07:28:38.840Z,4.70
2023-02-01T07:31:08.007Z,4.70
2023-02-01T07:33:37.384Z,4.90
2023-02-01T07:36:07.572Z,4.80
2023-02-01T07:38:36.126Z,4.80
2023-02-01T07:41:06.250Z,4.80
2023-02-01T07:43:35.042Z,4.80
2023-02-01T07:46:04.144Z,4.80
2023-02-01T07:48:33.940Z,4.70
2023-02-01T07:51:05.247Z,4.70
2023-02-01T07:53:35.113Z,4.80
2023-02-01T07:56:03.333Z,4.70
2023-02-01T07:58:31.160Z,4.70
2023-02-01T08:01:16.913Z,4.80
2023-02-01T08:03:44.830Z,4.80
2023-02-01T08:06:13.972Z,4.90
2023-02-01T08:08:41.844Z,4.90
2023-02-01T08:11:09.640Z,5.00
2023-02-01T08:13:37.485Z,5.00
2023-02-01T08:16:07.387Z,5.00
2023-02-01T08:18:35.585Z,5.10
2023-02-01T08:21:06.025Z,5.10
2023-02-01T08:23:35.329Z,5.10
2023-02-01T08:26:08.348Z,5.20
2023-02-01T08:28:37.908Z,5.20
2023-02-01T08:31:11.342Z,5.10
2023-02-01T08:33:39.531Z,5.10
2023-02-01T08:36:08.849Z,5.20
2023-02-01T08:38:39.091Z,5.20
2023-02-01T08:41:08.072Z,5.20
2023-02-01T08:43:36.210Z,5.20
2023-02-01T08:46:04.198Z,5.20
2023-02-01T08:48:32.218Z,5.20
2023-02-01T08:51:02.563Z,5.20
2023-02-01T08:53:30.532Z,5.30
2023-02-01T08:55:59.897Z,5.20
2023-02-01T08:58:27.714Z,5.20
2023-02-01T09:00:56.020Z,5.20
2023-02-01T09:03:24.091Z,5.10
2023-02-01T09:05:54.072Z,5.10
2023-02-01T09:08:22.306Z,5.20
2023-02-01T09:10:50.131Z,5.20
2023-02-01T09:13:19.307Z,5.20
2023-02-01T09:15:47.155Z,5.20
2023-02-01T09:18:15.214Z,5.30
2023-02-01T09:20:42.994Z,5.30
2023-02-01T09:23:11.051Z,5.50
2023-02-01T09:25:39.987Z,5.50
2023-02-01T09:28:09.946Z,5.60
2023-02-01T09:30:39.462Z,5.70
2023-02-01T09:33:07.293Z,5.70
2023-02-01T09:35:35.207Z,5.80
2023-02-01T09:38:02.981Z,5.90
2023-02-01T09:40:30.839Z,6.10
2023-02-01T09:43:18.947Z,6.50
2023-02-01T09:45:57.734Z,7.30
2023-02-01T09:48:31.218Z,7.90
2023-02-01T09:51:01.008Z,8.40
2023-02-01T09:53:34.085Z,8.90
2023-02-01T09:56:06.332Z,9.40
2023-02-01T09:58:38.933Z,9.80
2023-02-01T10:01:18.237Z,10.20
2023-02-01T10:03:46.268Z,9.90
2023-02-01T10:06:38.735Z,8.90
2023-02-01T10:09:32.244Z,8.50
2023-02-01T10:12:19.074Z,8.20
2023-02-01T10:14:57.532Z,7.90
2023-02-01T10:17:41.005Z,7.70
2023-02-01T10:20:18.739Z,7.70
2023-02-01T10:23:23.065Z,7.70
2023-02-01T10:25:43.970Z,7.70
2023-02-01T10:28:17.022Z,7.60
2023-02-01T10:30:47.430Z,7.50
2023-02-01T10:33:19.611Z,7.50
2023-02-01T10:35:48.252Z,7.40
2023-02-01T10:38:24.722Z,7.20
2023-02-01T10:40:53.960Z,7.20
2023-02-01T10:43:22.456Z,7.20
2023-02-01T10:45:50.512Z,7.20
2023-02-01T10:48:19.763Z,7.20
2023-02-01T10:50:53.385Z,7.40
2023-02-01T10:53:26.253Z,7.50
2023-02-01T10:55:55.121Z,7.30
2023-02-01T10:58:28.654Z,7.30
2023-02-01T11:00:59.919Z,7.40
2023-02-01T11:03:41.525Z,7.30
2023-02-01T11:06:28.828Z,7.20
2023-02-01T11:08:58.939Z,7.10
2023-02-01T11:11:27.500Z,7.20
2023-02-01T11:14:00.027Z,7.20
2023-02-01T11:16:35.061Z,7.50
2023-02-01T11:19:04.722Z,7.80
2023-02-01T11:21:32.859Z,7.90
2023-02-01T11:24:04.830Z,8.00
2023-02-01T11:26:33.900Z,8.20
2023-02-01T11:29:04.850Z,8.50
2023-02-01T11:31:35.522Z,8.60
2023-02-01T11:34:09.353Z,9.00
2023-02-01T11:36:38.801Z,8.90
2023-02-01T11:39:21.161Z,8.60
2023-02-01T11:42:02.748Z,8.70
2023-02-01T11:44:35.639Z,9.10
2023-02-01T11:47:22.120Z,9.10
2023-02-01T11:49:52.744Z,9.00
2023-02-01T11:52:39.266Z,9.00
2023-02-01T11:55:18.458Z,9.00
2023-02-01T11:57:59.268Z,9.10
2023-02-01T12:00:46.273Z,8.90
2023-02-01T12:04:00.545Z,8.70
2023-02-01T12:06:44.372Z,8.50
2023-02-01T12:09:29.278Z,8.40
2023-02-01T12:12:10.254Z,8.10
2023-02-01T12:14:48.339Z,8.10
2023-02-01T12:17:40.919Z,8.10
2023-02-01T12:20:31.086Z,8.20
2023-02-01T12:23:18.266Z,8.40
2023-02-01T12:26:04.015Z,8.30
2023-02-01T12:28:52.535Z,8.40
2023-02-01T12:31:37.009Z,8.20
2023-02-01T12:34:30.159Z,8.20
2023-02-01T12:37:10.072Z,8.10
2023-02-01T12:39:45.437Z,8.00
2023-02-01T12:42:18.276Z,7.90
2023-02-01T12:44:52.722Z,7.80
2023-02-01T12:47:24.930Z,7.80
2023-02-01T12:50:02.440Z,7.80
2023-02-01T12:52:38.942Z,7.80
2023-02-01T12:55:18.294Z,7.80
2023-02-01T12:57:51.391Z,7.70
2023-02-01T13:00:29.125Z,7.60
2023-02-01T13:03:02.996Z,7.40
2023-02-01T13:05:39.417Z,7.40
2023-02-01T13:08:11.348Z,7.40
2023-02-01T13:10:45.974Z,7.30
2023-02-01T13:13:24.348Z,7.30
2023-02-01T13:16:00.365Z,7.30
2023-02-01T13:18:35.892Z,7.30
2023-02-01T13:21:07.968Z,7.30
2023-02-01T13:23:38.576Z,7.40
2023-02-01T13:26:08.735Z,7.50
2023-02-01T13:28:43.540Z,7.60
2023-02-01T13:31:48.862Z,7.50
2023-02-01T13:34:55.446Z,7.50
2023-02-01T13:37:46.366Z,7.60
2023-02-01T13:40:42.961Z,7.70
2023-02-01T13:43:16.358Z,7.50
2023-02-01T13:45:47.763Z,7.40
2023-02-01T13:48:25.258Z,7.30
2023-02-01T13:50:56.485Z,7.20
2023-02-01T13:53:29.698Z,7.20
2023-02-01T13:56:01.018Z,7.10
2023-02-01T13:58:36.118Z,7.00
2023-02-01T14:01:36.774Z,7.20
2023-02-01T14:04:06.808Z,7.10
2023-02-01T14:06:46.866Z,7.20
2023-02-01T14:09:34.187Z,7.10
2023-02-01T14:12:35.568Z,7.10
2023-02-01T14:15:22.994Z,7.10
2023-02-01T14:17:51.277Z,7.00
2023-02-01T14:20:54.250Z,7.00
2023-02-01T14:23:28.148Z,6.90
2023-02-01T14:26:23.829Z,6.90
2023-02-01T14:28:56.195Z,6.80
2023-02-01T14:31:57.900Z,6.90
2023-02-01T14:34:33.193Z,6.90
2023-02-01T14:37:03.039Z,6.70
2023-02-01T14:39:39.449Z,6.70
2023-02-01T14:42:22.779Z,6.70
2023-02-01T14:44:58.938Z,6.80
2023-02-01T14:47:34.602Z,6.80
2023-02-01T14:50:27.180Z,6.70
2023-02-01T14:53:07.978Z,6.80
2023-02-01T14:55:40.857Z,6.80
2023-02-01T14:58:19.870Z,6.80
2023-02-01T15:00:52.371Z,6.70
2023-02-01T15:03:42.291Z,6.60
2023-02-01T15:06:27.292Z,6.60
2023-02-01T15:08:58.151Z,6.70
2023-02-01T15:11:26.255Z,6.60
2023-02-01T15:13:57.160Z,6.60
2023-02-01T15:16:26.928Z,6.70
2023-02-01T15:19:12.247Z,6.70
2023-02-01T15:21:48.199Z,6.60
2023-02-01T15:24:20.756Z,6.50
2023-02-01T15:26:48.948Z,6.50
2023-02-01T15:29:17.531Z,6.60
2023-02-01T15:31:47.833Z,6.60
2023-02-01T15:34:17.381Z,6.60
2023-02-01T15:37:00.637Z,6.50
2023-02-01T15:39:31.736Z,6.50
2023-02-01T15:42:02.939Z,6.50
2023-02-01T15:44:35.515Z,6.50
2023-02-01T15:47:10.576Z,6.60
2023-02-01T15:49:45.277Z,6.50
2023-02-01T15:52:22.819Z,6.50
2023-02-01T15:54:53.591Z,6.60
2023-02-01T15:57:27.537Z,6.50
2023-02-01T15:59:57.506Z,6.40
2023-02-01T16:02:32.003Z,6.50
2023-02-01T16:05:01.462Z,6.50
2023-02-01T16:07:31.117Z,6.50
2023-02-01T16:10:04.573Z,6.50
2023-02-01T16:12:36.047Z,6.40
2023-02-01T16:15:04.269Z,6.40
2023-02-01T16:17:32.177Z,6.50
2023-02-01T16:20:01.290Z,6.40
2023-02-01T16:22:29.081Z,6.30
2023-02-01T16:24:56.877Z,6.30
2023-02-01T16:27:24.876Z,6.30
2023-02-01T16:29:52.646Z,6.30
2023-02-01T16:32:23.308Z,6.30
2023-02-01T16:34:51.405Z,6.20
2023-02-01T16:37:23.953Z,6.30
2023-02-01T16:39:51.973Z,6.40
2023-02-01T16:42:19.766Z,6.40
2023-02-01T16:44:47.607Z,6.30
2023-02-01T16:47:21.590Z,6.30
2023-02-01T16:49:50.304Z,6.30
2023-02-01T16:52:23.591Z,6.30
2023-02-01T16:54:51.566Z,6.30
2023-02-01T16:57:23.403Z,6.30
2023-02-01T16:59:52.108Z,6.20
2023-02-01T17:02:22.774Z,6.30
2023-02-01T17:04:50.785Z,6.20
2023-02-01T17:07:19.890Z,6.20
2023-02-01T17:09:49.141Z,6.20
2023-02-01T17:12:23.894Z,6.20
2023-02-01T17:14:52.587Z,6.20
2023-02-01T17:17:32.732Z,6.20
2023-02-01T17:20:07.303Z,6.20
2023-02-01T17:22:35.506Z,6.30
2023-02-01T17:25:09.410Z,6.20
2023-02-01T17:27:38.707Z,6.10
2023-02-01T17:30:07.859Z,6.10
2023-02-01T17:32:35.705Z,6.20
2023-02-01T17:35:05.721Z,6.20
2023-02-01T17:37:36.525Z,6.10
2023-02-01T17:40:06.350Z,6.10
2023-02-01T17:42:34.258Z,6.10
2023-02-01T17:45:12.249Z,6.10
2023-02-01T17:47:40.074Z,6.20
2023-02-01T17:50:09.132Z,6.10
2023-02-01T17:52:37.968Z,6.10
2023-02-01T17:55:17.524Z,6.20
2023-02-01T17:57:45.348Z,6.30
2023-02-01T18:00:14.892Z,6.20
2023-02-01T18:02:42.916Z,6.20
2023-02-01T18:05:22.161Z,6.10
2023-02-01T18:07:50.383Z,6.10
2023-02-01T18:10:20.087Z,6.10
2023-02-01T18:12:48.077Z,6.00
2023-02-01T18:15:21.495Z,6.00
2023-02-01T18:17:49.673Z,5.90
2023-02-01T18:20:19.922Z,5.90
2023-02-01T18:22:49.543Z,6.00
2023-02-01T18:25:21.718Z,6.00
2023-02-01T18:27:49.948Z,6.00
2023-02-01T18:30:18.801Z,6.00
2023-02-01T18:32:48.420Z,6.10
2023-02-01T18:35:24.315Z,6.10
2023-02-01T18:37:53.476Z,6.10
2023-02-01T18:40:25.318Z,6.00
2023-02-01T18:42:53.280Z,6.00
2023-02-01T18:45:26.071Z,6.00
2023-02-01T18:47:54.121Z,5.90
2023-02-01T18:50:22.594Z,5.90
2023-02-01T18:52:54.521Z,6.00
2023-02-01T18:55:24.312Z,6.00
2023-02-01T18:57:52.870Z,5.90
2023-02-01T19:00:21.869Z,5.90
2023-02-01T19:02:49.956Z,5.90
2023-02-01T19:05:18.651Z,5.90
2023-02-01T19:07:47.470Z,5.90
2023-02-01T19:10:16.938Z,6.00
2023-02-01T19:12:46.341Z,5.90
2023-02-01T19:15:15.743Z,5.90
2023-02-01T19:17:45.123Z,5.80
2023-02-01T19:20:14.916Z,5.80
2023-02-01T19:22:43.330Z,5.80
2023-02-01T19:25:14.433Z,5.90
2023-02-01T19:27:42.399Z,5.80
2023-02-01T19:30:14.077Z,5.80
2023-02-01T19:32:42.085Z,5.90
2023-02-01T19:35:11.828Z,5.90
2023-02-01T19:37:41.297Z,5.90
2023-02-01T19:40:10.749Z,5.90
2023-02-01T19:42:39.052Z,5.80
2023-02-01T19:45:08.224Z,5.80
2023-02-01T19:47:37.642Z,5.90
2023-02-01T19:50:07.128Z,5.90
2023-02-01T19:52:35.551Z,5.90
2023-02-01T19:55:03.437Z,5.80
2023-02-01T19:57:31.846Z,5.70
2023-02-01T19:59:59.785Z,5.80
2023-02-01T20:02:28.675Z,5.90
2023-02-01T20:04:57.979Z,5.80
2023-02-01T20:07:25.786Z,5.80
2023-02-01T20:09:53.608Z,5.80
2023-02-01T20:12:21.378Z,5.80
2023-02-01T20:14:49.162Z,5.80
2023-02-01T20:17:17.808Z,5.80
2023-02-01T20:19:45.639Z,5.70
2023-02-01T20:22:14.850Z,5.80
2023-02-01T20:24:42.667Z,5.80
2023-02-01T20:27:13.007Z,5.70
2023-02-01T20:29:41.512Z,5.70
2023-02-01T20:32:10.123Z,5.70
2023-02-01T20:34:38.048Z,5.70
2023-02-01T20:37:05.972Z,5.80
2023-02-01T20:39:35.231Z,5.70
2023-02-01T20:42:03.033Z,5.70
2023-02-01T20:44:30.850Z,5.70
2023-02-01T20:46:58.947Z,5.70
2023-02-01T20:49:26.829Z,5.70
2023-02-01T20:51:54.638Z,5.60
2023-02-01T20:54:22.654Z,5.60
2023-02-01T20:56:51.797Z,5.60
2023-02-01T20:59:19.660Z,5.60
2023-02-01T21:01:52.811Z,5.60
2023-02-01T21:04:22.244Z,5.60
2023-02-01T21:06:50.584Z,5.50
2023-02-01T21:09:18.668Z,5.50
2023-02-01T21:11:46.659Z,5.60
2023-02-01T21:14:15.919Z,5.60
2023-02-01T21:16:43.934Z,5.60
2023-02-01T21:19:11.763Z,5.60
2023-02-01T21:21:39.550Z,5.60
2023-02-01T21:24:07.984Z,5.60
2023-02-01T21:26:41.718Z,5.50
2023-02-01T21:29:10.876Z,5.50
2023-02-01T21:31:40.761Z,5.50
2023-02-01T21:34:09.680Z,5.50
2023-02-01T21:36:37.950Z,5.40
2023-02-01T21:39:07.800Z,5.40
2023-02-01T21:41:54.178Z,5.40
2023-02-01T21:44:22.456Z,5.30
2023-02-01T21:46:51.605Z,5.30
2023-02-01T21:49:19.414Z,5.20
2023-02-01T21:51:47.639Z,5.10
2023-02-01T21:54:15.436Z,5.10
2023-02-01T21:56:43.201Z,5.20
2023-02-01T21:59:12.406Z,5.20
2023-02-01T22:01:41.416Z,5.10
2023-02-01T22:04:11.259Z,5.10
2023-02-01T22:06:41.287Z,5.10
2023-02-01T22:09:15.740Z,5.10
2023-02-01T22:11:43.579Z,5.10
2023-02-01T22:14:11.718Z,5.20
2023-02-01T22:16:39.538Z,5.20
2023-02-01T22:19:09.887Z,5.20
2023-02-01T22:21:41.819Z,5.20
2023-02-01T22:24:10.768Z,5.20
2023-02-01T22:26:39.389Z,5.20
2023-02-01T22:29:07.552Z,5.20
2023-02-01T22:31:35.546Z,5.20
2023-02-01T22:34:03.389Z,5.20
2023-02-01T22:36:31.772Z,5.30
2023-02-01T22:39:01.003Z,5.30
2023-02-01T22:41:28.821Z,5.30
2023-02-01T22:43:56.630Z,5.30
2023-02-01T22:46:26.335Z,5.40
2023-02-01T22:48:54.565Z,5.40
2023-02-01T22:51:25.513Z,5.30
2023-02-01T22:53:56.901Z,5.30
2023-02-01T22:56:27.362Z,5.30
2023-02-01T22:58:56.821Z,5.30
2023-02-01T23:01:24.912Z,5.30
2023-02-01T23:03:52.792Z,5.40
2023-02-01T23:06:20.552Z,5.40
2023-02-01T23:08:48.367Z,5.40
2023-02-01T23:11:16.249Z,5.30
2023-02-01T23:13:45.358Z,5.30
2023-02-01T23:16:15.105Z,5.30
2023-02-01T23:18:43.181Z,5.40
2023-02-01T23:21:14.237Z,5.50
2023-02-01T23:23:46.156Z,5.40
2023-02-01T23:26:14.257Z,5.40
2023-02-01T23:28:42.087Z,5.40
2023-02-01T23:31:12.905Z,5.40
2023-02-01T23:33:41.708Z,5.40
2023-02-01T23:36:15.827Z,5.40
2023-02-01T23:38:44.106Z,5.30
2023-02-01T23:41:13.396Z,5.30
2023-02-01T23:43:59.954Z,5.40
2023-02-01T23:46:32.337Z,5.30
2023-02-01T23:49:01.242Z,5.30
2023-02-01T23:51:29.790Z,5.40
2023-02-01T23:53:57.890Z,5.30
2023-02-01T23:56:27.682Z,5.30
2023-02-01T23:58:56.795Z,5.40
